createdAt,value
2022-11-16T00:00:05.679Z,98368
2022-11-16T00:01:02.701Z,98368
2022-11-16T00:02:00.402Z,98368
2022-11-16T00:03:01.741Z,98368
2022-11-16T00:04:01.718Z,98368
2022-11-16T00:05:00.330Z,98373
2022-11-16T00:06:01.812Z,98373
2022-11-16T00:07:00.763Z,98373
2022-11-16T00:08:00.306Z,98373
2022-11-16T00:09:01.338Z,98373
2022-11-16T00:10:00.343Z,98373
2022-11-16T00:11:04.502Z,98373
2022-11-16T00:12:01.588Z,98373
2022-11-16T00:13:00.388Z,98373
2022-11-16T00:14:00.376Z,98373
2022-11-16T00:15:00.309Z,98381
2022-11-16T00:16:00.630Z,98381
2022-11-16T00:17:00.501Z,98381
2022-11-16T00:18:00.328Z,98381
2022-11-16T00:19:01.402Z,98381
2022-11-16T00:20:00.340Z,98381
2022-11-16T00:21:02.340Z,98381
2022-11-16T00:22:00.306Z,98381
2022-11-16T00:23:00.321Z,98381
2022-11-16T00:24:00.815Z,98381
2022-11-16T00:25:00.308Z,98376
2022-11-16T00:26:02.949Z,98376
2022-11-16T00:27:00.312Z,98376
2022-11-16T00:28:00.350Z,98376
2022-11-16T00:29:00.320Z,98376
2022-11-16T00:30:00.361Z,98372
2022-11-16T00:31:01.062Z,98372
2022-11-16T00:32:00.310Z,98372
2022-11-16T00:33:00.769Z,98372
2022-11-16T00:34:00.310Z,98372
2022-11-16T00:35:00.350Z,98376
2022-11-16T00:36:01.063Z,98376
2022-11-16T00:37:00.313Z,98376
2022-11-16T00:38:00.310Z,98376
2022-11-16T00:39:00.356Z,98376
2022-11-16T00:40:00.337Z,98377
2022-11-16T00:41:00.482Z,98377
2022-11-16T00:42:00.338Z,98377
2022-11-16T00:43:00.351Z,98377
2022-11-16T00:44:00.332Z,98377
2022-11-16T00:45:00.300Z,98378
2022-11-16T00:46:00.780Z,98378
2022-11-16T00:47:00.328Z,98378
2022-11-16T00:48:00.856Z,98378
2022-11-16T00:49:00.384Z,98378
2022-11-16T00:50:00.917Z,98373
2022-11-16T00:51:00.398Z,98373
2022-11-16T00:52:00.341Z,98373
2022-11-16T00:53:00.394Z,98373
2022-11-16T00:54:00.893Z,98373
2022-11-16T00:55:00.341Z,98379
2022-11-16T00:56:00.550Z,98379
2022-11-16T00:57:00.445Z,98379
2022-11-16T00:58:00.362Z,98379
2022-11-16T00:59:00.348Z,98379
2022-11-16T01:00:00.443Z,98377
2022-11-16T01:01:04.553Z,98377
2022-11-16T01:02:00.324Z,98377
2022-11-16T01:03:00.366Z,98377
2022-11-16T01:04:00.432Z,98377
2022-11-16T01:05:00.321Z,98377
2022-11-16T01:06:04.539Z,98377
2022-11-16T01:07:00.375Z,98377
2022-11-16T01:08:00.394Z,98377
2022-11-16T01:09:00.610Z,98377
2022-11-16T01:10:00.937Z,98374
2022-11-16T01:11:00.478Z,98374
2022-11-16T01:12:00.313Z,98374
2022-11-16T01:13:00.359Z,98374
2022-11-16T01:14:02.754Z,98374
2022-11-16T01:15:00.688Z,98370
2022-11-16T01:16:00.298Z,98370
2022-11-16T01:17:00.365Z,98370
2022-11-16T01:18:00.321Z,98370
2022-11-16T01:19:00.412Z,98370
2022-11-16T01:20:00.317Z,98365
2022-11-16T01:21:00.338Z,98365
2022-11-16T01:22:00.318Z,98365
2022-11-16T01:23:00.300Z,98365
2022-11-16T01:24:00.307Z,98365
2022-11-16T01:25:00.462Z,98368
2022-11-16T01:26:00.310Z,98368
2022-11-16T01:27:00.307Z,98368
2022-11-16T01:28:00.293Z,98368
2022-11-16T01:29:00.322Z,98368
2022-11-16T01:30:00.528Z,98360
2022-11-16T01:31:00.641Z,98360
2022-11-16T01:32:00.451Z,98360
2022-11-16T01:33:00.296Z,98360
2022-11-16T01:34:00.338Z,98360
2022-11-16T01:35:00.434Z,98365
2022-11-16T01:36:00.339Z,98365
2022-11-16T01:37:00.344Z,98365
2022-11-16T01:38:00.404Z,98365
2022-11-16T01:39:00.388Z,98365
2022-11-16T01:40:00.468Z,98357
2022-11-16T01:41:00.313Z,98357
2022-11-16T01:42:00.381Z,98357
2022-11-16T01:43:00.337Z,98357
2022-11-16T01:44:03.022Z,98357
2022-11-16T01:45:02.801Z,98362
2022-11-16T01:46:00.319Z,98362
2022-11-16T01:47:02.085Z,98362
2022-11-16T01:48:00.539Z,98362
2022-11-16T01:49:05.496Z,98362
2022-11-16T01:50:02.587Z,98365
2022-11-16T01:51:00.461Z,98365
2022-11-16T01:52:03.530Z,98365
2022-11-16T01:53:03.090Z,98365
2022-11-16T01:54:01.774Z,98365
2022-11-16T01:55:01.107Z,98362
2022-11-16T01:56:00.473Z,98362
2022-11-16T01:57:01.852Z,98362
2022-11-16T01:58:01.193Z,98362
2022-11-16T01:59:00.681Z,98362
2022-11-16T02:00:02.114Z,98355
2022-11-16T02:01:00.470Z,98355
2022-11-16T02:02:00.642Z,98355
2022-11-16T02:03:00.446Z,98355
2022-11-16T02:04:00.564Z,98355
2022-11-16T02:05:00.884Z,98351
2022-11-16T02:06:01.379Z,98351
2022-11-16T02:07:01.335Z,98351
2022-11-16T02:08:10.201Z,98351
2022-11-16T02:09:10.218Z,98356
2022-11-16T02:10:03.585Z,98356
2022-11-16T02:11:03.658Z,98356
2022-11-16T02:12:10.198Z,98356
2022-11-16T02:13:10.243Z,98356
2022-11-16T02:14:10.196Z,98342
2022-11-16T02:15:00.315Z,98342
2022-11-16T02:16:03.584Z,98342
2022-11-16T02:17:10.190Z,98342
2022-11-16T02:18:00.298Z,98342
2022-11-16T02:19:10.203Z,98342
2022-11-16T02:20:10.212Z,98342
2022-11-16T02:21:05.659Z,98342
2022-11-16T02:22:10.209Z,98342
2022-11-16T02:23:00.315Z,98342
2022-11-16T02:24:01.314Z,98342
2022-11-16T02:25:10.214Z,98338
2022-11-16T02:26:03.590Z,98338
2022-11-16T02:27:10.195Z,98338
2022-11-16T02:28:10.186Z,98338
2022-11-16T02:29:10.195Z,98332
2022-11-16T02:30:01.428Z,98332
2022-11-16T02:31:02.820Z,98332
2022-11-16T02:32:04.258Z,98332
2022-11-16T02:33:08.604Z,98332
2022-11-16T02:34:00.725Z,98332
2022-11-16T02:35:10.221Z,98338
2022-11-16T02:36:01.911Z,98338
2022-11-16T02:37:01.352Z,98338
2022-11-16T02:38:06.247Z,98338
2022-11-16T02:39:03.253Z,98338
2022-11-16T02:40:01.478Z,98340
2022-11-16T02:41:04.604Z,98340
2022-11-16T02:42:01.630Z,98340
2022-11-16T02:43:05.121Z,98340
2022-11-16T02:44:07.770Z,98331
2022-11-16T02:45:02.267Z,98331
2022-11-16T02:46:04.021Z,98331
2022-11-16T02:47:01.795Z,98331
2022-11-16T02:48:02.772Z,98331
2022-11-16T02:49:02.479Z,98331
2022-11-16T02:50:10.226Z,98336
2022-11-16T02:51:01.552Z,98336
2022-11-16T02:52:01.041Z,98336
2022-11-16T02:53:01.283Z,98336
2022-11-16T02:54:00.302Z,98336
2022-11-16T02:55:00.394Z,98341
2022-11-16T02:56:00.345Z,98341
2022-11-16T02:57:01.355Z,98341
2022-11-16T02:58:01.447Z,98341
2022-11-16T02:59:00.334Z,98341
2022-11-16T03:00:01.341Z,98346
2022-11-16T03:01:04.253Z,98346
2022-11-16T03:02:10.205Z,98346
2022-11-16T03:03:00.308Z,98346
2022-11-16T03:04:10.202Z,98349
2022-11-16T03:05:10.199Z,98349
2022-11-16T03:06:02.802Z,98349
2022-11-16T03:07:02.830Z,98349
2022-11-16T03:08:04.982Z,98349
2022-11-16T03:09:03.371Z,98349
2022-11-16T03:10:00.983Z,98340
2022-11-16T03:11:02.270Z,98340
2022-11-16T03:12:01.436Z,98340
2022-11-16T03:13:01.251Z,98340
2022-11-16T03:14:02.364Z,98340
2022-11-16T03:15:01.844Z,98341
2022-11-16T03:16:04.301Z,98341
2022-11-16T03:17:01.383Z,98341
2022-11-16T03:18:00.352Z,98341
2022-11-16T03:19:04.583Z,98341
2022-11-16T03:20:03.330Z,98340
2022-11-16T03:21:05.575Z,98340
2022-11-16T03:22:01.329Z,98340
2022-11-16T03:23:02.757Z,98340
2022-11-16T03:24:00.409Z,98340
2022-11-16T03:25:00.387Z,98336
2022-11-16T03:26:03.756Z,98336
2022-11-16T03:27:00.329Z,98336
2022-11-16T03:28:10.197Z,98336
2022-11-16T03:29:04.558Z,98336
2022-11-16T03:30:01.313Z,98326
2022-11-16T03:31:05.109Z,98326
2022-11-16T03:32:05.976Z,98326
2022-11-16T03:33:07.668Z,98326
2022-11-16T03:34:03.137Z,98326
2022-11-16T03:35:05.272Z,98312
2022-11-16T03:36:00.290Z,98312
2022-11-16T03:37:02.262Z,98312
2022-11-16T03:38:02.095Z,98312
2022-11-16T03:39:03.221Z,98312
2022-11-16T03:40:01.602Z,98315
2022-11-16T03:41:02.029Z,98315
2022-11-16T03:42:01.690Z,98315
2022-11-16T03:43:01.487Z,98315
2022-11-16T03:44:01.136Z,98315
2022-11-16T03:45:01.458Z,98305
2022-11-16T03:46:00.391Z,98305
2022-11-16T03:47:00.757Z,98305
2022-11-16T03:48:00.371Z,98305
2022-11-16T03:49:00.383Z,98305
2022-11-16T03:50:00.340Z,98308
2022-11-16T03:51:00.652Z,98308
2022-11-16T03:52:00.391Z,98308
2022-11-16T03:53:00.298Z,98308
2022-11-16T03:54:00.301Z,98308
2022-11-16T03:55:00.420Z,98293
2022-11-16T03:56:00.391Z,98293
2022-11-16T03:57:00.324Z,98293
2022-11-16T03:58:00.313Z,98293
2022-11-16T03:59:00.384Z,98293
2022-11-16T04:00:00.370Z,98296
2022-11-16T04:01:00.606Z,98296
2022-11-16T04:02:00.307Z,98296
2022-11-16T04:03:00.303Z,98296
2022-11-16T04:04:00.320Z,98296
2022-11-16T04:05:00.311Z,98304
2022-11-16T04:06:00.279Z,98304
2022-11-16T04:07:00.375Z,98304
2022-11-16T04:08:00.543Z,98304
2022-11-16T04:09:00.311Z,98304
2022-11-16T04:10:00.303Z,98296
2022-11-16T04:11:00.689Z,98296
2022-11-16T04:12:00.460Z,98296
2022-11-16T04:13:00.944Z,98296
2022-11-16T04:14:03.135Z,98296
2022-11-16T04:15:02.545Z,98293
2022-11-16T04:16:00.309Z,98293
2022-11-16T04:17:00.323Z,98293
2022-11-16T04:18:00.332Z,98293
2022-11-16T04:19:00.378Z,98293
2022-11-16T04:20:00.313Z,98294
2022-11-16T04:21:00.395Z,98294
2022-11-16T04:22:10.197Z,98294
2022-11-16T04:23:02.469Z,98294
2022-11-16T04:24:00.424Z,98294
2022-11-16T04:25:06.506Z,98289
2022-11-16T04:26:00.333Z,98289
2022-11-16T04:27:02.169Z,98289
2022-11-16T04:28:01.384Z,98289
2022-11-16T04:29:00.383Z,98289
2022-11-16T04:30:01.356Z,98289
2022-11-16T04:31:02.143Z,98289
2022-11-16T04:32:00.598Z,98289
2022-11-16T04:33:00.316Z,98289
2022-11-16T04:34:00.324Z,98289
2022-11-16T04:35:00.377Z,98303
2022-11-16T04:36:00.386Z,98303
2022-11-16T04:37:00.296Z,98303
2022-11-16T04:38:00.321Z,98303
2022-11-16T04:39:00.654Z,98303
2022-11-16T04:40:00.332Z,98296
2022-11-16T04:41:00.405Z,98296
2022-11-16T04:42:00.463Z,98296
2022-11-16T04:43:01.045Z,98296
2022-11-16T04:44:00.321Z,98296
2022-11-16T04:45:00.393Z,98299
2022-11-16T04:46:00.307Z,98299
2022-11-16T04:47:00.354Z,98299
2022-11-16T04:48:00.392Z,98299
2022-11-16T04:49:00.303Z,98299
2022-11-16T04:50:00.388Z,98295
2022-11-16T04:51:00.376Z,98295
2022-11-16T04:52:00.495Z,98295
2022-11-16T04:53:00.784Z,98295
2022-11-16T04:54:00.300Z,98295
2022-11-16T04:55:00.548Z,98285
2022-11-16T04:56:00.991Z,98285
2022-11-16T04:57:00.322Z,98285
2022-11-16T04:58:01.147Z,98285
2022-11-16T04:59:00.303Z,98285
2022-11-16T05:00:00.443Z,98292
2022-11-16T05:01:00.379Z,98292
2022-11-16T05:02:00.332Z,98292
2022-11-16T05:03:02.326Z,98292
2022-11-16T05:04:00.320Z,98292
2022-11-16T05:05:00.323Z,98294
2022-11-16T05:06:00.395Z,98294
2022-11-16T05:07:00.387Z,98294
2022-11-16T05:08:00.310Z,98294
2022-11-16T05:09:00.416Z,98294
2022-11-16T05:10:00.631Z,98280
2022-11-16T05:11:00.311Z,98280
2022-11-16T05:12:00.335Z,98280
2022-11-16T05:13:00.463Z,98280
2022-11-16T05:14:00.525Z,98280
2022-11-16T05:15:00.347Z,98281
2022-11-16T05:16:00.332Z,98281
2022-11-16T05:17:00.312Z,98281
2022-11-16T05:18:00.342Z,98281
2022-11-16T05:19:00.352Z,98281
2022-11-16T05:20:00.704Z,98285
2022-11-16T05:21:00.305Z,98285
2022-11-16T05:22:00.305Z,98285
2022-11-16T05:23:00.345Z,98285
2022-11-16T05:24:00.344Z,98285
2022-11-16T05:25:00.433Z,98278
2022-11-16T05:26:00.335Z,98278
2022-11-16T05:27:02.161Z,98278
2022-11-16T05:28:00.323Z,98278
2022-11-16T05:29:00.296Z,98278
2022-11-16T05:30:00.322Z,98287
2022-11-16T05:31:00.492Z,98287
2022-11-16T05:32:00.602Z,98287
2022-11-16T05:33:00.306Z,98287
2022-11-16T05:34:00.390Z,98287
2022-11-16T05:35:00.355Z,98279
2022-11-16T05:36:00.317Z,98279
2022-11-16T05:37:00.360Z,98279
2022-11-16T05:38:00.304Z,98279
2022-11-16T05:39:00.444Z,98279
2022-11-16T05:40:00.350Z,98271
2022-11-16T05:41:01.018Z,98271
2022-11-16T05:42:00.736Z,98271
2022-11-16T05:43:00.672Z,98271
2022-11-16T05:44:00.682Z,98271
2022-11-16T05:45:00.698Z,98269
2022-11-16T05:46:01.026Z,98269
2022-11-16T05:47:00.556Z,98269
2022-11-16T05:48:00.641Z,98269
2022-11-16T05:49:00.774Z,98269
2022-11-16T05:50:00.771Z,98266
2022-11-16T05:51:00.882Z,98266
2022-11-16T05:52:00.597Z,98266
2022-11-16T05:53:00.463Z,98266
2022-11-16T05:54:00.831Z,98266
2022-11-16T05:55:00.489Z,98268
2022-11-16T05:56:00.564Z,98268
2022-11-16T05:57:00.796Z,98268
2022-11-16T05:58:00.472Z,98268
2022-11-16T05:59:00.807Z,98268
2022-11-16T06:00:00.657Z,98259
2022-11-16T06:01:00.802Z,98259
2022-11-16T06:02:00.471Z,98259
2022-11-16T06:03:00.493Z,98259
2022-11-16T06:04:00.979Z,98259
2022-11-16T06:05:00.482Z,98240
2022-11-16T06:06:00.848Z,98240
2022-11-16T06:07:00.539Z,98240
2022-11-16T06:08:00.508Z,98240
2022-11-16T06:09:01.132Z,98240
2022-11-16T06:10:00.512Z,98233
2022-11-16T06:11:01.480Z,98233
2022-11-16T06:12:00.681Z,98233
2022-11-16T06:13:00.669Z,98233
2022-11-16T06:14:00.503Z,98233
2022-11-16T06:15:00.471Z,98232
2022-11-16T06:16:00.949Z,98232
2022-11-16T06:17:00.794Z,98232
2022-11-16T06:18:00.467Z,98232
2022-11-16T06:19:00.582Z,98232
2022-11-16T06:20:00.498Z,98229
2022-11-16T06:21:00.669Z,98229
2022-11-16T06:22:00.683Z,98229
2022-11-16T06:23:00.707Z,98229
2022-11-16T06:24:00.718Z,98229
2022-11-16T06:25:00.828Z,98228
2022-11-16T06:26:00.735Z,98228
2022-11-16T06:27:00.510Z,98228
2022-11-16T06:28:04.012Z,98228
2022-11-16T06:29:00.460Z,98228
2022-11-16T06:30:00.447Z,98235
2022-11-16T06:31:00.749Z,98235
2022-11-16T06:32:00.482Z,98235
2022-11-16T06:33:00.706Z,98235
2022-11-16T06:34:00.464Z,98235
2022-11-16T06:35:00.469Z,98235
2022-11-16T06:36:00.473Z,98235
2022-11-16T06:37:00.772Z,98235
2022-11-16T06:38:00.452Z,98235
2022-11-16T06:39:00.470Z,98235
2022-11-16T06:40:00.490Z,98246
2022-11-16T06:41:00.474Z,98246
2022-11-16T06:42:00.479Z,98246
2022-11-16T06:43:00.499Z,98246
2022-11-16T06:44:00.508Z,98246
2022-11-16T06:45:00.514Z,98252
2022-11-16T06:46:00.479Z,98252
2022-11-16T06:47:00.499Z,98252
2022-11-16T06:48:00.477Z,98252
2022-11-16T06:49:00.744Z,98252
2022-11-16T06:50:00.608Z,98256
2022-11-16T06:51:02.664Z,98256
2022-11-16T06:52:00.350Z,98256
2022-11-16T06:53:00.314Z,98256
2022-11-16T06:54:00.289Z,98256
2022-11-16T06:55:00.433Z,98253
2022-11-16T06:56:01.500Z,98253
2022-11-16T06:57:00.295Z,98253
2022-11-16T06:58:00.304Z,98253
2022-11-16T06:59:00.407Z,98253
2022-11-16T07:00:00.414Z,98249
2022-11-16T07:01:08.498Z,98249
2022-11-16T07:02:00.383Z,98249
2022-11-16T07:03:01.727Z,98249
2022-11-16T07:04:00.305Z,98249
2022-11-16T07:05:03.509Z,98237
2022-11-16T07:06:04.303Z,98237
2022-11-16T07:07:00.376Z,98237
2022-11-16T07:08:00.301Z,98237
2022-11-16T07:09:00.297Z,98237
2022-11-16T07:10:00.560Z,98241
2022-11-16T07:11:04.174Z,98241
2022-11-16T07:12:00.342Z,98241
2022-11-16T07:13:01.035Z,98241
2022-11-16T07:14:00.428Z,98241
2022-11-16T07:15:00.337Z,98244
2022-11-16T07:16:01.269Z,98244
2022-11-16T07:17:03.973Z,98244
2022-11-16T07:18:02.055Z,98244
2022-11-16T07:19:00.335Z,98244
2022-11-16T07:20:00.302Z,98236
2022-11-16T07:21:08.871Z,98236
2022-11-16T07:22:00.331Z,98236
2022-11-16T07:23:00.804Z,98236
2022-11-16T07:24:00.308Z,98236
2022-11-16T07:25:00.307Z,98239
2022-11-16T07:26:01.103Z,98239
2022-11-16T07:27:00.302Z,98239
2022-11-16T07:28:00.301Z,98239
2022-11-16T07:29:00.676Z,98239
2022-11-16T07:30:00.333Z,98247
2022-11-16T07:31:01.249Z,98247
2022-11-16T07:32:00.411Z,98247
2022-11-16T07:33:00.300Z,98247
2022-11-16T07:34:00.299Z,98247
2022-11-16T07:35:00.390Z,98250
2022-11-16T07:36:00.868Z,98250
2022-11-16T07:37:00.319Z,98250
2022-11-16T07:38:00.346Z,98250
2022-11-16T07:39:00.327Z,98250
2022-11-16T07:40:00.316Z,98260
2022-11-16T07:41:01.387Z,98260
2022-11-16T07:42:00.307Z,98260
2022-11-16T07:43:00.304Z,98260
2022-11-16T07:44:00.302Z,98260
2022-11-16T07:45:00.342Z,98257
2022-11-16T07:46:45.188Z,98257
2022-11-16T07:47:00.290Z,98257
2022-11-16T07:48:00.306Z,98257
2022-11-16T07:49:00.344Z,98257
2022-11-16T07:50:00.308Z,98257
2022-11-16T07:51:01.019Z,98257
2022-11-16T07:52:00.304Z,98257
2022-11-16T07:53:00.301Z,98257
2022-11-16T07:54:00.388Z,98257
2022-11-16T07:55:00.308Z,98261
2022-11-16T07:56:00.335Z,98261
2022-11-16T07:57:00.317Z,98261
2022-11-16T07:58:00.294Z,98261
2022-11-16T07:59:00.333Z,98261
2022-11-16T08:00:00.394Z,98252
2022-11-16T08:01:02.585Z,98252
2022-11-16T08:02:00.393Z,98252
2022-11-16T08:03:00.287Z,98252
2022-11-16T08:04:00.443Z,98252
2022-11-16T08:05:00.311Z,98237
2022-11-16T08:06:01.634Z,98237
2022-11-16T08:07:00.369Z,98237
2022-11-16T08:08:00.333Z,98237
2022-11-16T08:09:00.299Z,98237
2022-11-16T08:10:00.717Z,98233
2022-11-16T08:11:01.359Z,98233
2022-11-16T08:12:00.305Z,98233
2022-11-16T08:13:00.434Z,98233
2022-11-16T08:14:00.330Z,98233
2022-11-16T08:15:00.341Z,98225
2022-11-16T08:16:02.633Z,98225
2022-11-16T08:17:00.320Z,98225
2022-11-16T08:18:00.977Z,98225
2022-11-16T08:19:00.307Z,98225
2022-11-16T08:20:00.324Z,98237
2022-11-16T08:21:00.409Z,98237
2022-11-16T08:22:00.436Z,98237
2022-11-16T08:23:00.307Z,98237
2022-11-16T08:24:00.318Z,98237
2022-11-16T08:25:00.343Z,98238
2022-11-16T08:26:01.938Z,98238
2022-11-16T08:27:00.400Z,98238
2022-11-16T08:28:00.365Z,98238
2022-11-16T08:29:00.344Z,98238
2022-11-16T08:30:00.433Z,98236
2022-11-16T08:31:06.117Z,98236
2022-11-16T08:32:00.300Z,98236
2022-11-16T08:33:00.340Z,98236
2022-11-16T08:34:00.358Z,98236
2022-11-16T08:35:00.367Z,98236
2022-11-16T08:36:05.430Z,98236
2022-11-16T08:37:00.292Z,98236
2022-11-16T08:38:00.341Z,98236
2022-11-16T08:39:00.298Z,98236
2022-11-16T08:40:00.388Z,98229
2022-11-16T08:41:00.304Z,98229
2022-11-16T08:42:00.323Z,98229
2022-11-16T08:43:00.291Z,98229
2022-11-16T08:44:00.535Z,98229
2022-11-16T08:45:00.289Z,98226
2022-11-16T08:46:00.429Z,98226
2022-11-16T08:47:00.343Z,98226
2022-11-16T08:48:03.949Z,98226
2022-11-16T08:49:00.346Z,98226
2022-11-16T08:50:00.350Z,98230
2022-11-16T08:51:17.047Z,98230
2022-11-16T08:52:00.310Z,98230
2022-11-16T08:53:00.287Z,98230
2022-11-16T08:54:00.352Z,98230
2022-11-16T08:55:00.324Z,98228
2022-11-16T08:56:02.295Z,98228
2022-11-16T08:57:00.330Z,98228
2022-11-16T08:58:00.288Z,98228
2022-11-16T08:59:00.356Z,98228
2022-11-16T09:00:00.435Z,98228
2022-11-16T09:01:10.446Z,98228
2022-11-16T09:02:00.411Z,98228
2022-11-16T09:03:00.327Z,98228
2022-11-16T09:04:00.312Z,98228
2022-11-16T09:05:00.299Z,98222
2022-11-16T09:06:00.306Z,98222
2022-11-16T09:07:00.399Z,98222
2022-11-16T09:08:00.298Z,98222
2022-11-16T09:09:00.435Z,98222
2022-11-16T09:10:00.346Z,98223
2022-11-16T09:11:02.877Z,98223
2022-11-16T09:12:00.389Z,98223
2022-11-16T09:13:00.349Z,98223
2022-11-16T09:14:00.317Z,98223
2022-11-16T09:15:00.329Z,98232
2022-11-16T09:16:00.972Z,98232
2022-11-16T09:17:00.299Z,98232
2022-11-16T09:18:00.296Z,98232
2022-11-16T09:19:00.341Z,98232
2022-11-16T09:20:00.414Z,98230
2022-11-16T09:21:00.305Z,98230
2022-11-16T09:22:00.402Z,98230
2022-11-16T09:23:00.301Z,98230
2022-11-16T09:24:00.305Z,98230
2022-11-16T09:25:00.305Z,98226
2022-11-16T09:26:01.633Z,98226
2022-11-16T09:27:00.291Z,98226
2022-11-16T09:28:00.353Z,98226
2022-11-16T09:29:00.416Z,98226
2022-11-16T09:30:00.345Z,98229
2022-11-16T09:31:02.602Z,98229
2022-11-16T09:32:00.368Z,98229
2022-11-16T09:33:00.373Z,98229
2022-11-16T09:34:00.387Z,98229
2022-11-16T09:35:00.334Z,98239
2022-11-16T09:36:01.202Z,98239
2022-11-16T09:37:00.317Z,98239
2022-11-16T09:38:00.347Z,98239
2022-11-16T09:39:31.478Z,98239
2022-11-16T09:40:00.384Z,98240
2022-11-16T09:41:08.147Z,98240
2022-11-16T09:42:06.177Z,98240
2022-11-16T09:43:07.901Z,98240
2022-11-16T09:44:01.396Z,98240
2022-11-16T09:45:03.808Z,98250
2022-11-16T09:46:10.187Z,98250
2022-11-16T09:47:01.076Z,98250
2022-11-16T09:48:02.662Z,98250
2022-11-16T09:49:01.807Z,98250
2022-11-16T09:50:03.780Z,98249
2022-11-16T09:51:02.228Z,98249
2022-11-16T09:52:02.553Z,98249
2022-11-16T09:53:10.198Z,98249
2022-11-16T09:54:04.247Z,98249
2022-11-16T09:55:02.853Z,98240
2022-11-16T09:56:00.279Z,98240
2022-11-16T09:57:07.963Z,98240
2022-11-16T09:58:02.339Z,98240
2022-11-16T09:59:00.290Z,98240
2022-11-16T10:00:03.674Z,98250
2022-11-16T10:01:10.213Z,98250
2022-11-16T10:02:10.183Z,98250
2022-11-16T10:03:05.260Z,98250
2022-11-16T10:04:05.582Z,98250
2022-11-16T10:05:10.191Z,98255
2022-11-16T10:06:04.276Z,98255
2022-11-16T10:07:10.253Z,98255
2022-11-16T10:08:05.383Z,98255
2022-11-16T10:09:00.362Z,98255
2022-11-16T10:10:00.341Z,98244
2022-11-16T10:11:03.622Z,98244
2022-11-16T10:12:00.304Z,98244
2022-11-16T10:13:01.328Z,98244
2022-11-16T10:14:10.197Z,98256
2022-11-16T10:15:01.335Z,98256
2022-11-16T10:16:10.195Z,98256
2022-11-16T10:17:03.605Z,98256
2022-11-16T10:18:01.331Z,98256
2022-11-16T10:19:03.567Z,98256
2022-11-16T10:20:10.203Z,98253
2022-11-16T10:21:01.327Z,98253
2022-11-16T10:22:10.209Z,98253
2022-11-16T10:23:10.253Z,98253
2022-11-16T10:24:07.600Z,98258
2022-11-16T10:25:05.646Z,98258
2022-11-16T10:26:10.195Z,98258
2022-11-16T10:27:10.204Z,98258
2022-11-16T10:28:10.194Z,98258
2022-11-16T10:29:00.278Z,98258
2022-11-16T10:30:07.532Z,98247
2022-11-16T10:31:01.302Z,98247
2022-11-16T10:32:07.133Z,98247
2022-11-16T10:33:10.975Z,98247
2022-11-16T10:34:02.182Z,98247
2022-11-16T10:35:08.030Z,98232
2022-11-16T10:36:03.151Z,98232
2022-11-16T10:37:01.620Z,98232
2022-11-16T10:38:01.251Z,98232
2022-11-16T10:39:00.601Z,98232
2022-11-16T10:40:09.039Z,98230
2022-11-16T10:41:03.553Z,98230
2022-11-16T10:42:07.257Z,98230
2022-11-16T10:43:04.516Z,98230
2022-11-16T10:44:01.083Z,98230
2022-11-16T10:45:10.208Z,98226
2022-11-16T10:46:10.186Z,98226
2022-11-16T10:47:03.613Z,98226
2022-11-16T10:48:10.203Z,98226
2022-11-16T10:49:10.194Z,98215
2022-11-16T10:50:03.575Z,98215
2022-11-16T10:51:00.513Z,98215
2022-11-16T10:52:00.392Z,98215
2022-11-16T10:53:00.319Z,98215
2022-11-16T10:54:00.351Z,98215
2022-11-16T10:55:00.428Z,98220
2022-11-16T10:56:09.844Z,98220
2022-11-16T10:57:03.458Z,98220
2022-11-16T10:58:00.302Z,98220
2022-11-16T10:59:02.284Z,98220
2022-11-16T11:00:00.425Z,98224
2022-11-16T11:01:00.339Z,98224
2022-11-16T11:02:10.224Z,98224
2022-11-16T11:03:00.386Z,98224
2022-11-16T11:04:10.199Z,98223
2022-11-16T11:05:00.284Z,98223
2022-11-16T11:06:00.389Z,98223
2022-11-16T11:07:01.456Z,98223
2022-11-16T11:08:10.238Z,98223
2022-11-16T11:09:11.220Z,98220
2022-11-16T11:10:00.686Z,98220
2022-11-16T11:11:01.923Z,98220
2022-11-16T11:12:10.211Z,98220
2022-11-16T11:13:00.370Z,98220
2022-11-16T11:14:03.455Z,98220
2022-11-16T11:15:03.579Z,98214
2022-11-16T11:16:10.217Z,98214
2022-11-16T11:17:09.654Z,98214
2022-11-16T11:18:10.207Z,98214
2022-11-16T11:19:10.223Z,98207
2022-11-16T11:20:10.211Z,98207
2022-11-16T11:21:05.755Z,98207
2022-11-16T11:22:00.471Z,98207
2022-11-16T11:23:02.552Z,98207
2022-11-16T11:24:29.339Z,98207
2022-11-16T11:25:01.262Z,98215
2022-11-16T11:26:00.414Z,98215
2022-11-16T11:27:00.315Z,98215
2022-11-16T11:28:04.282Z,98215
2022-11-16T11:29:01.504Z,98215
2022-11-16T11:30:00.544Z,98217
2022-11-16T11:31:01.815Z,98217
2022-11-16T11:32:04.096Z,98217
2022-11-16T11:33:00.490Z,98217
2022-11-16T11:34:10.202Z,98205
2022-11-16T11:35:00.967Z,98205
2022-11-16T11:36:03.707Z,98205
2022-11-16T11:37:01.722Z,98205
2022-11-16T11:38:07.387Z,98205
2022-11-16T11:39:03.553Z,98205
2022-11-16T11:40:10.247Z,98207
2022-11-16T11:41:01.468Z,98207
2022-11-16T11:42:01.864Z,98207
2022-11-16T11:43:01.563Z,98207
2022-11-16T11:44:01.295Z,98207
2022-11-16T11:45:05.885Z,98213
2022-11-16T11:46:08.415Z,98213
2022-11-16T11:48:01.683Z,98213
2022-11-16T11:49:10.204Z,98215
2022-11-16T11:50:10.221Z,98215
2022-11-16T11:51:07.837Z,98215
2022-11-16T11:52:10.221Z,98215
2022-11-16T11:53:10.284Z,98215
2022-11-16T11:54:01.779Z,98215
2022-11-16T11:55:01.609Z,98208
2022-11-16T11:56:00.471Z,98208
2022-11-16T11:57:02.108Z,98208
2022-11-16T11:58:01.643Z,98208
2022-11-16T11:59:02.223Z,98208
2022-11-16T12:00:01.599Z,98198
2022-11-16T12:01:00.311Z,98198
2022-11-16T12:02:01.327Z,98198
2022-11-16T12:03:09.889Z,98198
2022-11-16T12:04:10.231Z,98192
2022-11-16T12:05:10.280Z,98192
2022-11-16T12:06:03.605Z,98192
2022-11-16T12:07:10.322Z,98192
2022-11-16T12:08:07.645Z,98192
2022-11-16T12:09:10.189Z,98178
2022-11-16T12:10:10.205Z,98178
2022-11-16T12:11:07.673Z,98178
2022-11-16T12:12:00.283Z,98178
2022-11-16T12:13:10.186Z,98178
2022-11-16T12:14:00.308Z,98178
2022-11-16T12:15:06.199Z,98171
2022-11-16T12:16:00.280Z,98171
2022-11-16T12:17:10.230Z,98171
2022-11-16T12:18:00.285Z,98171
2022-11-16T12:19:03.598Z,98171
2022-11-16T12:20:10.211Z,98168
2022-11-16T12:21:03.625Z,98168
2022-11-16T12:22:10.266Z,98168
2022-11-16T12:23:10.278Z,98168
2022-11-16T12:24:10.213Z,98170
2022-11-16T12:25:10.273Z,98170
2022-11-16T12:26:10.254Z,98170
2022-11-16T12:27:08.495Z,98170
2022-11-16T12:28:10.275Z,98170
2022-11-16T12:29:00.286Z,98170
2022-11-16T12:30:00.297Z,98173
2022-11-16T12:31:03.556Z,98173
2022-11-16T12:32:10.295Z,98173
2022-11-16T12:33:00.300Z,98173
2022-11-16T12:34:01.339Z,98173
2022-11-16T12:35:03.560Z,98175
2022-11-16T12:36:05.179Z,98175
2022-11-16T12:37:09.903Z,98175
2022-11-16T12:38:10.236Z,98175
2022-11-16T12:39:10.333Z,98147
2022-11-16T12:40:00.282Z,98147
2022-11-16T12:41:06.817Z,98147
2022-11-16T12:42:01.310Z,98147
2022-11-16T12:43:08.155Z,98147
2022-11-16T12:44:00.299Z,98147
2022-11-16T12:45:10.309Z,98107
2022-11-16T12:46:06.190Z,98107
2022-11-16T12:47:10.307Z,98107
2022-11-16T12:48:03.597Z,98107
2022-11-16T12:49:10.310Z,98122
2022-11-16T12:50:06.178Z,98122
2022-11-16T12:51:10.264Z,98122
2022-11-16T12:52:10.298Z,98122
2022-11-16T12:53:01.360Z,98122